createdAt,value
2018-08-03T06:13:46.626Z,253.12
2018-08-03T06:15:56.625Z,253.12
2018-08-03T06:18:12.853Z,258.75
2018-08-03T06:21:07.297Z,264.38
2018-08-03T06:21:44.376Z,264.38
2018-08-03T06:22:44.341Z,270.00
2018-08-03T06:23:44.465Z,270.00
2018-08-03T06:24:44.333Z,275.62
2018-08-03T06:25:44.353Z,275.62
2018-08-03T06:26:46.157Z,275.62
2018-08-03T06:27:44.233Z,281.25
2018-08-03T06:28:44.036Z,281.25
2018-08-03T06:29:44.286Z,286.88
2018-08-03T06:30:44.037Z,286.88
2018-08-03T06:31:51.339Z,286.88
2018-08-03T06:32:44.539Z,292.50
2018-08-03T06:33:44.280Z,292.50
2018-08-03T06:34:43.997Z,292.50
2018-08-03T06:35:44.108Z,298.12
2018-08-03T06:36:44.045Z,298.12
2018-08-03T06:37:44.563Z,303.75
2018-08-03T06:38:43.927Z,303.75
2018-08-03T06:39:43.938Z,309.38
2018-08-03T06:40:43.929Z,309.38
2018-08-03T06:41:43.911Z,309.38
2018-08-03T06:42:43.900Z,315.00
2018-08-03T06:43:44.025Z,315.00
2018-08-03T06:44:43.873Z,320.62
2018-08-03T06:45:43.858Z,320.62
2018-08-03T06:46:43.842Z,320.62
2018-08-03T06:47:43.839Z,326.25
2018-08-03T06:48:43.835Z,326.25
2018-08-03T06:49:43.863Z,326.25
2018-08-03T06:50:43.819Z,331.88
2018-08-03T06:51:43.824Z,331.88
2018-08-03T06:52:43.781Z,337.50
2018-08-03T06:53:43.921Z,337.50
2018-08-03T06:54:44.055Z,343.12
2018-08-03T06:55:43.811Z,343.12
2018-08-03T06:56:43.908Z,343.12
2018-08-03T06:57:43.893Z,348.75
2018-08-03T12:39:06.334Z,2784.38
2018-08-03T12:40:06.083Z,2626.88
2018-08-03T12:41:06.104Z,2385.00
2018-08-03T12:42:06.076Z,2401.88
2018-08-03T12:43:06.067Z,2604.38
2018-08-03T12:44:06.273Z,2328.75
2018-08-03T12:45:06.218Z,2615.62
2018-08-03T12:46:06.313Z,2880.00
2018-08-03T12:47:06.217Z,2812.50
2018-08-03T12:48:06.215Z,2694.38
2018-08-03T12:49:06.206Z,2705.62
2018-08-03T12:50:06.276Z,2733.75
2018-08-03T12:51:06.195Z,2598.75
2018-08-03T12:52:06.182Z,1867.50
2018-08-03T12:53:06.164Z,883.12
2018-08-03T12:54:06.001Z,945.00
2018-08-03T12:55:06.146Z,1816.88
2018-08-03T12:56:06.205Z,2176.88
2018-08-03T12:57:06.190Z,888.75
2018-08-03T12:58:06.180Z,2193.75
2018-08-03T12:59:05.994Z,2289.38
2018-08-03T13:00:06.117Z,2407.50
2018-08-03T13:01:06.172Z,2475.00
2018-08-03T13:02:06.181Z,2413.12
2018-08-03T13:03:05.922Z,2205.00
2018-08-03T13:04:06.081Z,2092.50
2018-08-03T13:05:06.107Z,2103.75
2018-08-03T13:06:06.074Z,2058.75
2018-08-03T13:07:06.008Z,2160.00
2018-08-03T13:08:06.169Z,2458.12
2018-08-03T13:09:05.903Z,2548.12
2018-08-03T13:10:05.905Z,2351.25
2018-08-03T13:11:06.045Z,2171.25
2018-08-03T13:12:06.022Z,2171.25
2018-08-03T13:13:06.143Z,2244.38
2018-08-03T13:14:06.009Z,2368.12
2018-08-03T13:15:05.999Z,2356.88
2018-08-03T13:16:05.988Z,2182.50
2018-08-03T13:17:06.008Z,2019.38
2018-08-03T13:18:06.000Z,1018.12
2018-08-03T13:19:06.020Z,641.25
2018-08-03T13:20:05.973Z,601.88
2018-08-03T13:21:05.975Z,573.75
2018-08-03T13:22:05.948Z,551.25
2018-08-03T13:23:05.937Z,691.88
2018-08-03T13:24:06.131Z,1254.38
2018-08-03T13:25:05.979Z,1929.38
2018-08-03T13:26:05.943Z,579.38
2018-08-03T13:27:06.048Z,528.75
2018-08-03T13:28:05.754Z,489.38
2018-08-03T13:29:05.750Z,450.00
2018-08-03T13:30:06.108Z,427.50
2018-08-03T21:51:36.855Z,0.00
2018-08-03T21:52:36.735Z,0.00
2018-08-03T21:53:36.614Z,0.00
2018-08-03T21:54:36.623Z,0.00
2018-08-03T21:55:36.660Z,0.00
2018-08-03T21:56:36.782Z,0.00
2018-08-03T21:57:36.716Z,0.00
2018-08-03T21:58:36.990Z,0.00
2018-08-03T21:59:36.672Z,0.00
2018-08-03T22:00:36.942Z,0.00
2018-08-03T22:01:37.012Z,0.00
2018-08-03T22:02:36.866Z,0.00
2018-08-03T22:03:37.293Z,0.00
2018-08-03T22:04:36.545Z,0.00
2018-08-03T22:05:36.540Z,0.00
2018-08-03T22:06:36.546Z,0.00
2018-08-03T22:07:36.691Z,0.00
2018-08-03T22:08:36.634Z,0.00
2018-08-03T22:09:36.630Z,0.00
2018-08-03T22:10:36.531Z,0.00
2018-08-03T22:11:36.483Z,0.00
2018-08-03T22:12:36.612Z,0.00
2018-08-03T22:13:36.742Z,0.00
2018-08-03T22:14:36.444Z,0.00
2018-08-03T22:15:36.793Z,0.00
2018-08-03T22:16:36.575Z,0.00
2018-08-03T22:17:37.023Z,0.00
2018-08-03T22:18:36.576Z,0.00
2018-08-03T22:19:36.568Z,0.00
2018-08-03T22:20:37.806Z,0.00
2018-08-03T22:21:36.475Z,0.00
2018-08-03T22:23:28.130Z,0.00
2018-08-03T22:24:28.089Z,0.00
2018-08-03T22:25:27.929Z,0.00
2018-08-03T22:26:27.904Z,0.00
2018-08-03T22:27:27.881Z,0.00
2018-08-03T22:28:28.094Z,0.00
2018-08-03T22:29:28.029Z,0.00
2018-08-03T22:30:28.068Z,0.00
2018-08-03T22:31:28.014Z,0.00
2018-08-03T22:32:27.940Z,0.00
2018-08-03T22:33:27.991Z,0.00
2018-08-03T22:34:28.031Z,0.00
2018-08-03T22:35:27.981Z,0.00
2018-08-03T22:36:27.998Z,0.00
2018-08-03T22:37:27.954Z,0.00
2018-08-03T22:38:27.936Z,0.00
2018-08-03T22:39:27.935Z,0.00
2018-08-03T22:40:27.927Z,0.00
2018-08-03T22:41:28.027Z,0.00
2018-08-03T22:42:27.909Z,0.00
2018-08-03T22:43:27.903Z,0.00
2018-08-03T22:44:27.897Z,0.00
2018-08-03T22:45:27.932Z,0.00
2018-08-03T22:46:27.857Z,0.00
2018-08-03T22:47:27.882Z,0.00
2018-08-03T23:03:14.438Z,0.00
2018-08-03T23:04:14.669Z,0.00
2018-08-03T23:05:14.552Z,0.00
2018-08-03T23:06:14.538Z,0.00
2018-08-03T23:07:14.411Z,0.00
2018-08-03T23:08:14.474Z,0.00
2018-08-03T23:09:14.339Z,0.00
2018-08-03T23:10:14.418Z,0.00
2018-08-03T23:11:14.345Z,0.00
2018-08-03T23:12:14.316Z,0.00
2018-08-03T23:13:14.292Z,0.00
2018-08-03T23:14:14.294Z,0.00
2018-08-03T23:15:14.294Z,0.00
2018-08-03T23:16:14.388Z,0.00
2018-08-03T23:17:14.419Z,0.00
2018-08-03T23:18:14.247Z,0.00
2018-08-03T23:19:14.232Z,0.00
2018-08-03T23:20:14.390Z,0.00
2018-08-03T23:21:14.573Z,0.00
2018-08-03T23:22:14.368Z,0.00
2018-08-03T23:23:14.349Z,0.00
2018-08-03T23:24:14.339Z,0.00
2018-08-03T23:25:14.336Z,0.00
2018-08-03T23:26:14.217Z,0.00
2018-08-03T23:27:14.359Z,0.00
2018-08-03T23:28:14.300Z,0.00
2018-08-03T23:29:14.294Z,0.00
2018-08-03T23:30:14.284Z,0.00
2018-08-03T23:31:14.133Z,0.00
2018-08-03T23:32:14.352Z,0.00
2018-08-03T23:33:14.248Z,0.00
2018-08-03T23:34:14.241Z,0.00
2018-08-03T23:35:14.231Z,0.00
2018-08-03T23:36:14.218Z,0.00
2018-08-03T23:37:14.205Z,0.00
2018-08-03T23:38:14.236Z,0.00
2018-08-03T23:39:14.191Z,0.00
2018-08-03T23:40:14.176Z,0.00
2018-08-03T23:41:14.165Z,0.00
2018-08-03T23:42:14.152Z,0.00
2018-08-03T23:43:14.180Z,0.00
2018-08-03T23:44:14.128Z,0.00
2018-08-03T23:45:14.116Z,0.00
2018-08-03T23:46:14.109Z,0.00
2018-08-03T23:47:14.102Z,0.00
2018-08-03T23:48:14.095Z,0.00
2018-08-03T23:49:14.133Z,0.00
2018-08-03T23:50:13.943Z,0.00
2018-08-03T23:51:14.056Z,0.00
2018-08-03T23:52:14.046Z,0.00
2018-08-03T23:53:14.029Z,0.00
2018-08-03T23:54:14.113Z,0.00
2018-08-03T23:55:14.016Z,0.00
2018-08-03T23:56:14.005Z,0.00
2018-08-03T23:57:13.993Z,0.00
2018-08-03T23:58:13.986Z,0.00
2018-08-03T23:59:13.976Z,0.00
